createdAt,value
2018-08-03T00:01:43.886Z,9.37
2018-08-03T00:04:13.071Z,11.07
2018-08-03T00:06:42.252Z,13.23
2018-08-03T00:09:11.579Z,11.37
2018-08-03T00:11:40.851Z,11.70
2018-08-03T00:14:09.986Z,12.37
2018-08-03T00:16:39.306Z,11.27
2018-08-03T00:19:07.993Z,12.00
2018-08-03T00:21:37.212Z,12.73
2018-08-03T00:24:06.513Z,11.43
2018-08-03T00:26:35.706Z,11.60
2018-08-03T00:29:05.205Z,12.80
2018-08-03T00:31:34.426Z,12.63
2018-08-03T00:34:03.787Z,13.40
2018-08-03T00:36:32.700Z,11.57
2018-08-03T00:39:01.988Z,12.67
2018-08-03T00:41:30.772Z,12.37
2018-08-03T00:44:00.066Z,12.03
2018-08-03T00:46:29.266Z,11.23
2018-08-03T00:48:57.972Z,12.17
2018-08-03T00:51:27.285Z,11.77
2018-08-03T00:53:56.664Z,11.47
2018-08-03T00:56:26.096Z,10.73
2018-08-03T00:58:55.283Z,12.23
2018-08-03T01:01:24.496Z,13.10
2018-08-03T01:03:53.786Z,13.03
2018-08-03T01:06:23.026Z,12.30
2018-08-03T01:08:52.340Z,13.83
2018-08-03T01:11:21.600Z,12.97
2018-08-03T01:13:51.020Z,12.70
2018-08-03T01:16:20.367Z,12.30
2018-08-03T01:18:49.106Z,12.37
2018-08-03T01:21:18.386Z,11.83
2018-08-03T01:23:47.746Z,12.23
2018-08-03T01:26:17.017Z,13.63
2018-08-03T01:28:46.246Z,12.87
2018-08-03T01:31:15.493Z,13.83
2018-08-03T01:33:44.726Z,13.47
2018-08-03T01:36:13.920Z,13.47
2018-08-03T01:38:43.224Z,16.07
2018-08-03T01:41:12.506Z,14.57
2018-08-03T01:43:41.868Z,12.87
2018-08-03T01:46:11.162Z,15.47
2018-08-03T01:48:40.372Z,14.37
2018-08-03T01:51:09.811Z,13.20
2018-08-03T01:53:39.050Z,13.93
2018-08-03T01:56:08.368Z,16.20
2018-08-03T01:58:37.685Z,13.57
2018-08-03T02:01:07.105Z,12.67
2018-08-03T02:03:36.410Z,13.43
2018-08-03T02:06:05.581Z,15.93
2018-08-03T02:08:34.820Z,12.27
2018-08-03T02:11:04.066Z,15.63
2018-08-03T02:13:33.495Z,14.17
2018-08-03T02:16:02.792Z,14.87
2018-08-03T02:18:32.067Z,14.53
2018-08-03T02:21:01.356Z,13.37
2018-08-03T02:23:31.592Z,12.93
2018-08-03T02:26:00.784Z,16.30
2018-08-03T02:28:30.066Z,13.37
2018-08-03T02:30:59.260Z,14.87
2018-08-03T02:33:28.697Z,15.67
2018-08-03T02:35:58.167Z,12.63
2018-08-03T02:38:27.489Z,14.00
2018-08-03T02:40:56.817Z,14.43
2018-08-03T02:43:26.063Z,13.27
2018-08-03T02:45:55.326Z,13.13
2018-08-03T02:48:24.607Z,14.50
2018-08-03T02:50:53.932Z,13.80
2018-08-03T02:53:23.179Z,13.07
2018-08-03T02:55:52.361Z,13.20
2018-08-03T02:58:21.673Z,13.50
2018-08-03T03:00:51.084Z,14.80
2018-08-03T03:03:20.346Z,12.53
2018-08-03T03:05:49.676Z,11.87
2018-08-03T03:08:18.951Z,12.37
2018-08-03T03:10:48.245Z,13.67
2018-08-03T03:13:17.450Z,12.33
2018-08-03T03:15:46.709Z,11.60
2018-08-03T03:18:15.985Z,11.90
2018-08-03T03:20:44.711Z,14.47
2018-08-03T03:23:14.002Z,14.07
2018-08-03T03:25:43.343Z,12.97
2018-08-03T03:28:12.571Z,12.60
2018-08-03T03:30:43.021Z,15.00
2018-08-03T03:33:12.223Z,13.47
2018-08-03T03:35:41.546Z,13.23
2018-08-03T03:38:10.891Z,11.80
2018-08-03T03:40:40.198Z,14.70
2018-08-03T03:43:09.386Z,12.87
2018-08-03T03:45:38.607Z,12.63
2018-08-03T03:48:07.946Z,12.73
2018-08-03T03:50:37.258Z,12.03
2018-08-03T03:53:06.608Z,11.80
2018-08-03T03:55:35.892Z,12.20
2018-08-03T03:58:05.166Z,12.23
2018-08-03T04:00:34.574Z,15.47
2018-08-03T04:03:03.846Z,14.33
2018-08-03T04:05:33.231Z,12.77
2018-08-03T04:08:02.505Z,12.47
2018-08-03T04:10:31.705Z,14.33
2018-08-03T04:13:00.340Z,13.60
2018-08-03T04:15:29.614Z,14.30
2018-08-03T04:17:58.946Z,13.17
2018-08-03T04:20:28.263Z,14.07
2018-08-03T04:22:57.531Z,13.00
2018-08-03T04:25:26.735Z,14.20
2018-08-03T04:27:55.945Z,13.30
2018-08-03T04:30:25.146Z,13.83
2018-08-03T04:32:54.369Z,12.70
2018-08-03T04:35:23.649Z,14.77
2018-08-03T04:37:53.286Z,15.03
2018-08-03T04:40:22.626Z,16.50
2018-08-03T04:42:51.813Z,13.83
2018-08-03T04:45:21.086Z,14.67
2018-08-03T04:47:50.223Z,13.33
2018-08-03T04:50:19.482Z,14.57
2018-08-03T04:52:48.773Z,15.17
2018-08-03T04:55:17.974Z,15.23
2018-08-03T04:57:47.286Z,14.93
2018-08-03T05:00:16.647Z,15.50
2018-08-03T05:02:45.980Z,14.73
2018-08-03T05:05:15.257Z,14.47
2018-08-03T05:07:44.546Z,14.40
2018-08-03T05:10:13.806Z,16.00
2018-08-03T05:12:43.099Z,15.47
2018-08-03T05:15:12.407Z,15.33
2018-08-03T05:17:41.628Z,13.73
2018-08-03T05:20:10.860Z,14.63
2018-08-03T05:22:40.066Z,14.83
2018-08-03T05:25:09.329Z,16.13
2018-08-03T05:27:38.510Z,15.70
2018-08-03T05:30:09.354Z,15.90
2018-08-03T05:32:38.772Z,26.43
2018-08-03T05:35:08.860Z,28.07
2018-08-03T05:37:38.206Z,28.67
2018-08-03T05:40:07.546Z,28.07
2018-08-03T05:42:36.915Z,21.30
2018-08-03T05:45:07.301Z,16.70
2018-08-03T05:47:37.760Z,15.77
2018-08-03T05:50:07.438Z,16.00
2018-08-03T05:52:36.770Z,15.57
2018-08-03T05:55:06.124Z,15.80
2018-08-03T05:57:35.380Z,16.60
2018-08-03T06:00:05.332Z,14.83
2018-08-03T06:02:34.668Z,15.27
2018-08-03T06:05:04.035Z,15.97
2018-08-03T06:07:33.360Z,15.73
2018-08-03T06:10:02.642Z,14.60
2018-08-03T06:12:31.581Z,14.00
2018-08-03T06:15:00.876Z,14.90
2018-08-03T06:17:30.203Z,14.37
2018-08-03T06:19:59.408Z,14.43
2018-08-03T06:22:28.705Z,17.20
2018-08-03T06:24:57.957Z,14.53
2018-08-03T06:27:27.190Z,15.50
2018-08-03T06:29:56.492Z,14.60
2018-08-03T06:32:25.747Z,14.20
2018-08-03T06:34:54.982Z,14.67
2018-08-03T06:37:24.285Z,14.80
2018-08-03T06:39:53.423Z,13.90
2018-08-03T06:42:22.659Z,14.33
2018-08-03T06:44:51.756Z,14.87
2018-08-03T06:47:20.964Z,14.23
2018-08-03T06:49:50.245Z,14.23
2018-08-03T06:52:19.025Z,14.03
2018-08-03T06:54:48.306Z,14.07
2018-08-03T06:57:17.432Z,13.83
2018-08-03T06:59:46.638Z,13.63
2018-08-03T07:02:15.850Z,13.17
2018-08-03T07:04:45.039Z,14.17
2018-08-03T07:07:14.248Z,13.93
2018-08-03T07:09:43.514Z,14.07
2018-08-03T07:12:12.806Z,12.40
2018-08-03T07:14:42.079Z,13.77
2018-08-03T07:17:11.308Z,13.70
2018-08-03T07:19:40.083Z,13.50
2018-08-03T07:22:09.287Z,14.00
2018-08-03T07:24:38.653Z,13.57
2018-08-03T07:27:08.034Z,12.77
2018-08-03T07:29:37.246Z,11.93
2018-08-03T07:32:06.583Z,12.33
2018-08-03T07:34:35.775Z,12.87
2018-08-03T07:37:05.035Z,12.10
2018-08-03T07:39:34.267Z,12.80
2018-08-03T07:42:03.567Z,12.70
2018-08-03T07:44:32.790Z,12.23
2018-08-03T07:47:01.996Z,11.97
2018-08-03T07:49:30.763Z,11.37
2018-08-03T07:51:59.959Z,10.87
2018-08-03T07:54:28.745Z,12.07
2018-08-03T07:56:57.991Z,11.83
2018-08-03T07:59:27.176Z,12.90
2018-08-03T08:01:56.402Z,11.97
2018-08-03T08:04:28.199Z,11.90
2018-08-03T08:06:57.392Z,11.37
2018-08-03T08:09:26.651Z,11.93
2018-08-03T08:11:56.024Z,11.80
2018-08-03T08:14:25.424Z,12.80
2018-08-03T08:16:54.628Z,12.87
2018-08-03T08:19:23.926Z,12.40
2018-08-03T08:21:53.125Z,12.17
2018-08-03T08:24:22.609Z,11.80
2018-08-03T08:26:51.897Z,11.23
2018-08-03T08:29:21.292Z,10.73
2018-08-03T08:31:50.618Z,10.20
2018-08-03T08:34:19.939Z,11.40
2018-08-03T08:36:49.262Z,10.50
2018-08-03T08:39:18.586Z,10.20
2018-08-03T08:41:47.949Z,10.53
2018-08-03T08:44:17.258Z,10.13
2018-08-03T08:46:46.716Z,10.90
2018-08-03T08:49:15.942Z,10.50
2018-08-03T08:51:45.341Z,11.60
2018-08-03T08:54:14.650Z,10.83
2018-08-03T08:56:43.789Z,10.87
2018-08-03T08:59:13.046Z,10.70
2018-08-03T09:01:45.192Z,10.43
2018-08-03T09:04:14.460Z,10.77
2018-08-03T09:06:43.751Z,11.33
2018-08-03T09:09:13.025Z,10.83
2018-08-03T09:11:41.802Z,11.43
2018-08-03T09:14:11.030Z,11.10
2018-08-03T09:16:40.507Z,10.43
2018-08-03T09:19:09.877Z,10.77
2018-08-03T09:21:39.114Z,10.37
2018-08-03T09:24:08.365Z,11.00
2018-08-03T09:26:37.601Z,10.90
2018-08-03T09:29:06.927Z,10.73
2018-08-03T09:31:36.414Z,10.20
2018-08-03T09:34:06.157Z,11.03
2018-08-03T09:36:35.722Z,10.70
2018-08-03T09:39:07.029Z,10.70
2018-08-03T09:41:36.321Z,10.23
2018-08-03T09:44:05.877Z,10.43
2018-08-03T09:46:34.846Z,9.77
2018-08-03T09:49:04.536Z,9.80
2018-08-03T09:51:33.974Z,10.77
2018-08-03T09:54:03.310Z,10.17
2018-08-03T09:56:32.612Z,9.93
2018-08-03T09:59:02.108Z,10.00
2018-08-03T10:01:31.407Z,10.17
2018-08-03T10:04:01.241Z,9.70
2018-08-03T10:06:30.493Z,9.10
2018-08-03T10:08:59.700Z,10.67
2018-08-03T10:11:28.957Z,10.33
2018-08-03T10:13:58.122Z,9.80
2018-08-03T10:16:27.448Z,9.57
2018-08-03T10:18:56.780Z,10.00
2018-08-03T10:21:26.081Z,10.37
2018-08-03T10:23:55.387Z,9.43
2018-08-03T10:26:24.781Z,9.70
2018-08-03T10:28:54.597Z,9.43
2018-08-03T10:31:23.977Z,9.53
2018-08-03T10:33:53.523Z,9.10
2018-08-03T10:36:22.833Z,9.13
2018-08-03T10:38:52.253Z,10.63
2018-08-03T10:41:21.477Z,8.90
2018-08-03T10:43:50.971Z,8.90
2018-08-03T10:46:20.563Z,9.23
2018-08-03T10:48:49.980Z,9.77
2018-08-03T10:51:19.237Z,8.80
2018-08-03T10:53:49.982Z,8.13
2018-08-03T10:56:18.803Z,9.53
2018-08-03T10:58:48.045Z,9.50
2018-08-03T11:01:17.263Z,9.13
2018-08-03T11:03:46.489Z,7.30
2018-08-03T11:06:15.844Z,6.90
2018-08-03T11:08:45.166Z,7.92
2018-08-03T11:11:14.547Z,8.13
2018-08-03T11:13:43.786Z,7.55
2018-08-03T11:16:13.448Z,7.08
2018-08-03T11:18:42.707Z,7.42
2018-08-03T11:21:12.023Z,7.40
2018-08-03T11:23:41.304Z,6.70
2018-08-03T11:26:10.585Z,7.35
2018-08-03T11:28:39.814Z,6.30
2018-08-03T11:31:09.093Z,7.35
2018-08-03T11:33:38.322Z,8.45
2018-08-03T11:36:07.536Z,8.13
2018-08-03T11:38:36.792Z,7.97
2018-08-03T11:41:06.193Z,7.65
2018-08-03T11:43:35.506Z,8.25
2018-08-03T11:46:04.889Z,7.55
2018-08-03T11:48:34.278Z,7.62
2018-08-03T11:51:03.507Z,7.87
2018-08-03T11:53:32.760Z,8.10
2018-08-03T11:56:01.966Z,8.30
2018-08-03T11:58:31.293Z,7.95
2018-08-03T12:01:00.703Z,7.83
2018-08-03T12:03:30.126Z,8.18
2018-08-03T12:05:59.458Z,7.92
2018-08-03T12:08:29.033Z,7.72
2018-08-03T12:11:04.465Z,8.00
2018-08-03T12:13:33.846Z,7.42
2018-08-03T12:16:03.200Z,7.55
2018-08-03T12:18:32.594Z,8.43
2018-08-03T12:21:01.906Z,7.53
2018-08-03T12:23:31.382Z,7.90
2018-08-03T12:26:00.724Z,8.03
2018-08-03T12:28:30.029Z,8.30
2018-08-03T12:30:59.423Z,8.05
2018-08-03T12:33:28.799Z,7.47
2018-08-03T12:35:58.350Z,7.85
2018-08-03T12:38:27.722Z,7.35
2018-08-03T12:40:57.024Z,7.28
2018-08-03T12:43:26.374Z,7.45
2018-08-03T12:45:55.621Z,7.30
2018-08-03T12:48:24.894Z,7.03
2018-08-03T12:50:54.260Z,6.92
2018-08-03T12:53:23.540Z,6.55
2018-08-03T12:55:52.805Z,7.10
2018-08-03T12:58:22.195Z,7.10
2018-08-03T13:00:51.065Z,6.85
2018-08-03T13:03:20.393Z,6.67
2018-08-03T13:05:49.727Z,6.03
2018-08-03T13:08:19.115Z,6.95
2018-08-03T13:10:48.396Z,6.50
2018-08-03T13:13:17.658Z,5.95
2018-08-03T13:15:46.991Z,5.83
2018-08-03T13:18:16.462Z,5.83
2018-08-03T13:20:45.790Z,5.83
2018-08-03T13:23:14.999Z,6.15
2018-08-03T13:25:44.273Z,6.15
2018-08-03T13:28:13.989Z,5.70
2018-08-03T13:30:43.340Z,5.85
2018-08-03T13:33:12.665Z,6.67
2018-08-03T13:35:41.808Z,6.10
2018-08-03T13:38:11.062Z,6.08
2018-08-03T13:40:40.442Z,6.08
2018-08-03T13:43:09.794Z,5.97
2018-08-03T13:45:39.171Z,5.87
2018-08-03T13:48:08.315Z,6.00
2018-08-03T13:50:37.775Z,4.95
2018-08-03T13:53:07.195Z,5.75
2018-08-03T13:55:36.499Z,5.15
2018-08-03T13:58:05.764Z,4.37
2018-08-03T14:00:35.105Z,4.55
2018-08-03T14:03:04.470Z,5.05
2018-08-03T14:05:33.707Z,4.62
2018-08-03T14:08:02.931Z,4.17
2018-08-03T14:10:32.200Z,3.98
2018-08-03T14:13:01.509Z,4.55
2018-08-03T14:15:30.896Z,3.92
2018-08-03T14:18:00.217Z,3.95
2018-08-03T14:20:29.567Z,3.87
2018-08-03T14:22:58.824Z,4.10
2018-08-03T14:25:28.192Z,3.60
2018-08-03T14:27:57.534Z,3.50
2018-08-03T14:30:26.919Z,4.30
2018-08-03T14:32:56.277Z,4.25
2018-08-03T14:35:25.395Z,3.90
2018-08-03T14:37:54.678Z,4.05
2018-08-03T14:40:23.993Z,3.98
2018-08-03T14:42:53.183Z,3.98
2018-08-03T14:45:22.451Z,3.83
2018-08-03T14:47:51.574Z,3.47
2018-08-03T14:50:20.976Z,4.53
2018-08-03T14:52:50.305Z,4.35
2018-08-03T14:55:19.545Z,3.70
2018-08-03T14:57:48.738Z,4.25
2018-08-03T15:00:17.865Z,3.75
2018-08-03T15:02:47.106Z,4.42
2018-08-03T15:05:16.403Z,4.75
2018-08-03T15:07:45.555Z,4.30
2018-08-03T15:10:14.873Z,3.83
2018-08-03T15:12:44.066Z,4.10
2018-08-03T15:15:13.437Z,4.35
2018-08-03T15:17:42.628Z,4.05
2018-08-03T15:20:11.399Z,4.37
2018-08-03T15:22:41.126Z,4.62
2018-08-03T15:25:10.690Z,4.15
2018-08-03T15:27:39.880Z,4.42
2018-08-03T15:30:10.799Z,4.30
2018-08-03T15:32:40.048Z,4.90
2018-08-03T15:35:09.348Z,4.90
2018-08-03T15:37:38.604Z,5.20
2018-08-03T15:40:08.784Z,4.55
2018-08-03T15:42:37.572Z,4.62
2018-08-03T15:45:08.094Z,4.90
2018-08-03T15:47:37.372Z,4.62
2018-08-03T15:50:07.247Z,4.33
2018-08-03T15:52:36.535Z,4.75
2018-08-03T15:55:06.074Z,4.55
2018-08-03T15:57:35.450Z,4.50
2018-08-03T16:00:05.475Z,5.00
2018-08-03T16:02:34.830Z,4.58
2018-08-03T16:05:11.026Z,4.62
2018-08-03T16:07:40.314Z,5.10
2018-08-03T16:10:09.674Z,4.87
2018-08-03T16:12:39.031Z,4.45
2018-08-03T16:15:08.351Z,5.22
2018-08-03T16:17:37.534Z,5.05
2018-08-03T16:20:06.726Z,5.58
2018-08-03T16:22:36.090Z,5.40
2018-08-03T16:25:06.379Z,5.53
2018-08-03T16:27:35.701Z,6.00
2018-08-03T16:30:05.512Z,5.97
2018-08-03T16:32:34.728Z,5.67
2018-08-03T16:35:04.077Z,5.77
2018-08-03T16:37:33.902Z,5.97
2018-08-03T16:40:03.149Z,6.23
2018-08-03T16:42:32.319Z,5.80
2018-08-03T16:45:01.604Z,6.20
2018-08-03T16:47:30.887Z,5.90
2018-08-03T16:50:00.257Z,6.17
2018-08-03T16:52:29.482Z,5.93
2018-08-03T16:54:58.920Z,6.13
2018-08-03T16:57:28.371Z,6.80
2018-08-03T16:59:57.562Z,6.47
2018-08-03T17:02:27.301Z,6.27
2018-08-03T17:04:56.666Z,6.23
2018-08-03T17:07:25.990Z,6.20
2018-08-03T17:09:55.206Z,6.27
2018-08-03T17:12:24.580Z,5.97
2018-08-03T17:14:53.886Z,6.30
2018-08-03T17:17:23.290Z,6.37
2018-08-03T17:19:52.590Z,6.87
2018-08-03T17:22:22.140Z,7.03
2018-08-03T17:24:51.499Z,6.10
2018-08-03T17:27:20.847Z,5.93
2018-08-03T17:29:50.161Z,7.00
2018-08-03T17:32:19.505Z,6.90
2018-08-03T17:34:48.391Z,5.70
2018-08-03T17:37:17.556Z,6.20
2018-08-03T17:39:46.977Z,6.63
2018-08-03T17:42:16.212Z,6.60
2018-08-03T17:44:45.603Z,6.47
2018-08-03T17:47:14.922Z,6.80
2018-08-03T17:49:44.173Z,6.37
2018-08-03T17:52:13.654Z,6.30
2018-08-03T17:54:44.056Z,6.20
2018-08-03T17:57:13.307Z,6.37
2018-08-03T17:59:47.361Z,6.53
2018-08-03T18:02:16.648Z,5.73
2018-08-03T18:04:45.868Z,7.10
2018-08-03T18:07:15.189Z,6.33
2018-08-03T18:09:44.532Z,6.60
2018-08-03T18:12:13.777Z,6.73
2018-08-03T18:14:43.063Z,6.03
2018-08-03T18:17:12.444Z,6.43
2018-08-03T18:19:41.636Z,6.27
2018-08-03T18:22:10.926Z,6.40
2018-08-03T18:24:40.162Z,6.37
2018-08-03T18:27:09.405Z,6.40
2018-08-03T18:29:38.647Z,6.93
2018-08-03T18:32:07.868Z,6.60
2018-08-03T18:34:37.195Z,6.00
2018-08-03T18:37:06.480Z,6.77
2018-08-03T18:39:35.708Z,7.07
2018-08-03T18:42:05.026Z,6.33
2018-08-03T18:44:34.305Z,6.63
2018-08-03T18:47:03.542Z,7.20
2018-08-03T18:49:32.743Z,7.03
2018-08-03T18:52:02.038Z,6.40
2018-08-03T18:54:31.401Z,7.10
2018-08-03T18:57:00.722Z,7.10
2018-08-03T18:59:29.879Z,6.97
2018-08-03T19:01:59.091Z,6.97
2018-08-03T19:04:28.377Z,8.17
2018-08-03T19:06:57.597Z,7.27
2018-08-03T19:09:26.883Z,7.67
2018-08-03T19:11:56.206Z,8.03
2018-08-03T19:14:25.431Z,8.17
2018-08-03T19:16:54.842Z,8.10
2018-08-03T19:19:24.141Z,8.40
2018-08-03T19:21:53.497Z,9.20
2018-08-03T19:24:22.722Z,7.67
2018-08-03T19:26:51.883Z,9.40
2018-08-03T19:29:21.306Z,10.90
2018-08-03T19:31:50.586Z,9.83
2018-08-03T19:34:19.986Z,9.67
2018-08-03T19:36:49.601Z,9.17
2018-08-03T19:39:20.592Z,9.93
2018-08-03T19:41:49.939Z,10.13
2018-08-03T19:44:19.336Z,9.27
2018-08-03T19:46:48.668Z,9.47
2018-08-03T19:49:17.884Z,10.10
2018-08-03T19:51:47.120Z,9.40
2018-08-03T19:54:16.482Z,9.87
2018-08-03T19:56:45.998Z,10.27
2018-08-03T19:59:15.261Z,9.40
2018-08-03T20:01:44.404Z,9.53
2018-08-03T20:04:13.791Z,10.03
2018-08-03T20:06:42.961Z,10.47
2018-08-03T20:09:13.105Z,10.93
2018-08-03T20:11:42.267Z,10.13
2018-08-03T20:14:11.485Z,10.37
2018-08-03T20:16:43.070Z,10.03
2018-08-03T20:19:12.444Z,10.83
2018-08-03T20:21:41.826Z,10.47
2018-08-03T20:24:11.065Z,11.17
2018-08-03T20:26:40.698Z,12.03
2018-08-03T20:29:09.891Z,11.43
2018-08-03T20:31:39.126Z,10.67
2018-08-03T20:34:08.434Z,10.67
2018-08-03T20:36:37.743Z,11.47
2018-08-03T20:39:09.416Z,10.77
2018-08-03T20:41:38.655Z,11.17
2018-08-03T20:44:08.072Z,11.37
2018-08-03T20:46:37.689Z,10.90
2018-08-03T20:49:07.814Z,11.80
2018-08-03T20:51:37.015Z,11.43
2018-08-03T20:54:06.364Z,11.43
2018-08-03T20:56:35.726Z,11.03
2018-08-03T20:59:05.007Z,11.43
2018-08-03T21:01:34.236Z,12.03
2018-08-03T21:04:03.608Z,11.17
2018-08-03T21:06:32.896Z,11.83
2018-08-03T21:09:02.196Z,11.00
2018-08-03T21:11:31.564Z,11.67
2018-08-03T21:14:01.139Z,12.17
2018-08-03T21:16:30.533Z,12.10
2018-08-03T21:19:00.180Z,11.57
2018-08-03T21:21:29.586Z,12.07
2018-08-03T21:23:58.898Z,11.77
2018-08-03T21:26:28.469Z,12.20
2018-08-03T21:28:58.248Z,12.43
2018-08-03T21:31:27.524Z,12.20
2018-08-03T21:33:56.863Z,11.83
2018-08-03T21:36:25.911Z,12.17
2018-08-03T21:38:55.246Z,11.97
2018-08-03T21:41:24.690Z,11.47
2018-08-03T21:43:54.044Z,11.60
2018-08-03T21:46:23.282Z,12.57
2018-08-03T21:48:56.600Z,12.60
2018-08-03T21:51:25.813Z,12.40
2018-08-03T21:53:55.099Z,12.40
2018-08-03T21:56:24.437Z,12.67
2018-08-03T21:58:53.642Z,12.47
2018-08-03T22:01:23.840Z,12.10
2018-08-03T22:03:53.041Z,12.20
2018-08-03T22:06:22.383Z,12.57
2018-08-03T22:08:51.797Z,13.07
2018-08-03T22:11:20.990Z,12.17
2018-08-03T22:13:50.338Z,12.37
2018-08-03T22:16:19.580Z,12.23
2018-08-03T22:18:48.995Z,11.77
2018-08-03T22:21:18.318Z,11.47
2018-08-03T22:23:47.614Z,11.57
2018-08-03T22:26:16.855Z,12.40
2018-08-03T22:28:46.043Z,12.17
2018-08-03T22:31:15.326Z,12.60
2018-08-03T22:33:44.628Z,11.70
2018-08-03T22:36:14.253Z,11.97
2018-08-03T22:38:43.602Z,12.17
2018-08-03T22:41:12.986Z,11.83
2018-08-03T22:43:42.690Z,11.67
2018-08-03T22:46:12.002Z,11.47
2018-08-03T22:48:41.303Z,10.67
2018-08-03T22:51:10.497Z,11.73
2018-08-03T22:53:39.648Z,12.80
2018-08-03T22:56:08.879Z,11.13
2018-08-03T22:58:38.156Z,12.57
2018-08-03T23:01:07.604Z,12.77
2018-08-03T23:03:36.820Z,12.67
2018-08-03T23:06:06.131Z,12.23
2018-08-03T23:08:35.449Z,11.53
2018-08-03T23:11:04.745Z,12.67
2018-08-03T23:13:33.922Z,13.70
2018-08-03T23:16:03.203Z,12.20
2018-08-03T23:18:32.525Z,13.13
2018-08-03T23:21:01.768Z,11.17
2018-08-03T23:23:30.902Z,13.73
2018-08-03T23:25:59.485Z,12.57
2018-08-03T23:28:28.775Z,12.40
2018-08-03T23:30:58.090Z,13.83
2018-08-03T23:33:27.412Z,13.67
2018-08-03T23:35:56.551Z,13.03
2018-08-03T23:38:25.839Z,12.80
2018-08-03T23:40:55.033Z,11.13
2018-08-03T23:43:24.285Z,12.53
2018-08-03T23:45:53.064Z,12.70
2018-08-03T23:48:22.278Z,12.53
2018-08-03T23:50:50.891Z,12.13
2018-08-03T23:53:20.083Z,12.50
2018-08-03T23:55:49.312Z,12.43
2018-08-03T23:58:18.512Z,12.37
